Time;durP1;ratioP1;P1;durP2;ratioP2;P2;SDS_P1;SDS_P2;PMS_P1;PMS_P2;Temp;Humidity;BMP_temperature;BMP_pressure;BME280_temperature;BME280_humidity;BME280_pressure;Samples;Min_cycle;Max_cycle;Signal;HPM_P1;HPM_P2
2020/12/19 00:02:01;;;;;;;93.33;42.88;;;;;;;-0.14;80.38;100006.55;2305955;77;21272;-64
2020/12/19 00:05:05;;;;;;;93.30;40.88;;;;;;;-0.14;80.39;100009.13;2306372;77;21693;-64
2020/12/19 00:08:07;;;;;;;87.62;38.58;;;;;;;-0.17;80.42;100010.01;2305894;77;21288;-64
2020/12/19 00:11:09;;;;;;;81.60;38.28;;;;;;;-0.18;80.32;100003.13;2306432;77;21162;-64
2020/12/19 00:14:11;;;;;;;96.57;42.15;;;;;;;-0.22;80.40;100000.10;2306197;77;21681;-64
2020/12/19 00:17:13;;;;;;;94.20;41.63;;;;;;;-0.25;80.24;100000.10;2306339;77;21153;-64
2020/12/19 00:20:15;;;;;;;91.15;41.68;;;;;;;-0.30;80.41;99999.22;2306054;77;21292;-64
2020/12/19 00:23:18;;;;;;;101.22;43.80;;;;;;;-0.36;80.16;100000.06;2306233;77;21249;-64
2020/12/19 00:26:20;;;;;;;97.35;42.00;;;;;;;-0.37;80.41;99998.37;2306442;77;21149;-64
2020/12/19 00:29:22;;;;;;;95.85;39.50;;;;;;;-0.37;80.23;99996.64;2306335;77;21684;-64
2020/12/19 00:32:25;;;;;;;;;;;;;;;-0.40;80.24;99997.92;2309055;77;21126;-64
2020/12/19 00:35:27;;;;;;;88.43;40.70;;;;;;;-0.42;80.12;100002.64;2306172;77;20484;-64
2020/12/19 00:38:29;;;;;;;90.45;39.10;;;;;;;-0.43;80.19;99998.33;2306038;77;21284;-64
2020/12/19 00:41:31;;;;;;;85.28;39.98;;;;;;;-0.45;80.13;99998.77;2306403;77;21130;-64
2020/12/19 00:44:33;;;;;;;93.33;41.13;;;;;;;-0.50;80.01;99996.18;2306394;77;21261;-64
2020/12/19 00:47:36;;;;;;;84.47;38.50;;;;;;;-0.52;80.22;99994.02;2306009;77;21684;-64
2020/12/19 00:50:38;;;;;;;88.52;40.58;;;;;;;-0.53;80.12;99994.89;2300545;77;21280;-64
2020/12/19 00:53:41;;;;;;;90.60;40.78;;;;;;;-0.53;80.34;99989.30;2299039;77;21244;-64
2020/12/19 00:56:43;;;;;;;82.30;36.98;;;;;;;-0.45;80.17;99986.73;2298781;77;21704;-64
2020/12/19 00:59:45;;;;;;;83.33;38.20;;;;;;;-0.42;80.01;99992.33;2277228;77;21261;-64
2020/12/19 01:02:47;;;;;;;84.70;38.30;;;;;;;-0.39;80.24;99982.02;2298451;77;21256;-64
2020/12/19 01:05:49;;;;;;;90.50;39.55;;;;;;;-0.42;80.13;99973.84;2298955;77;21257;-64
2020/12/19 01:08:51;;;;;;;88.85;41.73;;;;;;;-0.40;80.31;99969.56;2298992;77;21272;-64
2020/12/19 01:11:53;;;;;;;91.02;38.33;;;;;;;-0.29;80.29;99979.88;2298586;77;21244;-64
2020/12/19 01:14:56;;;;;;;88.95;37.48;;;;;;;-0.30;80.35;99987.20;2277163;77;21265;-64
2020/12/19 01:17:58;;;;;;;89.00;37.55;;;;;;;-0.30;80.05;99991.08;2298763;77;21707;-64
2020/12/19 01:21:00;;;;;;;84.03;38.02;;;;;;;-0.45;80.30;99990.59;2298482;77;21249;-64
2020/12/19 01:24:02;;;;;;;86.12;38.45;;;;;;;-0.48;80.49;99994.89;2299008;77;21265;-64
2020/12/19 01:27:04;;;;;;;78.70;36.28;;;;;;;-0.49;80.61;99989.30;2298600;77;21280;-64
2020/12/19 01:30:06;;;;;;;79.58;34.98;;;;;;;-0.42;80.63;99989.30;2298719;77;21309;-64
2020/12/19 01:33:09;;;;;;;83.25;35.35;;;;;;;-0.42;80.79;99997.04;2298864;77;21241;-64
2020/12/19 01:36:11;;;;;;;76.28;33.85;;;;;;;-0.44;80.72;100002.64;2298639;77;21276;-64
2020/12/19 01:39:13;;;;;;;73.20;33.05;;;;;;;-0.51;80.74;100003.47;2298730;77;21268;-64
2020/12/19 01:42:15;;;;;;;79.30;37.33;;;;;;;-0.55;80.79;100002.63;2298963;77;21284;-64
2020/12/19 01:45:17;;;;;;;76.05;34.73;;;;;;;-0.53;81.13;100004.77;2298484;77;21106;-64
2020/12/19 01:48:20;;;;;;;78.80;36.30;;;;;;;-0.43;80.87;100004.37;2298928;77;21265;-64
2020/12/19 01:51:23;;;;;;;79.42;37.05;;;;;;;-0.36;81.02;99991.92;2275907;77;21141;-64
2020/12/19 01:54:26;;;;;;;72.10;31.75;;;;;;;-0.23;81.19;99985.07;2298361;77;21272;-64
2020/12/19 01:57:28;;;;;;;70.65;31.50;;;;;;;-0.04;81.03;99974.34;2277056;77;21261;-64
2020/12/19 02:00:30;;;;;;;69.65;31.95;;;;;;;-0.07;80.32;99980.78;2298695;77;21295;-64
2020/12/19 02:03:32;;;;;;;69.15;31.20;;;;;;;0.01;80.98;99972.19;2298738;77;21252;-64
2020/12/19 02:06:34;;;;;;;73.22;31.80;;;;;;;0.22;80.52;99967.47;2298825;77;21268;-64
2020/12/19 02:09:36;;;;;;;73.28;31.57;;;;;;;0.25;79.99;99969.60;2298560;77;21740;-64
2020/12/19 02:12:38;;;;;;;69.82;30.62;;;;;;;0.12;79.91;99963.58;2298455;77;21246;-64
2020/12/19 02:15:41;;;;;;;69.55;29.40;;;;;;;0.19;80.41;99954.54;2298703;77;21700;-64
2020/12/19 02:18:43;;;;;;;69.42;31.93;;;;;;;0.19;79.82;99955.42;2298958;77;21091;-64
2020/12/19 02:21:45;;;;;;;71.55;34.10;;;;;;;0.18;80.04;99958.00;2298650;77;21700;-64
2020/12/19 02:24:47;;;;;;;77.55;36.98;;;;;;;0.20;79.99;99957.56;2298396;77;21260;-64
2020/12/19 02:27:49;;;;;;;79.25;37.58;;;;;;;0.19;79.74;99955.42;2298920;77;21338;-64
2020/12/19 02:30:51;;;;;;;79.95;39.03;;;;;;;0.09;79.88;99950.69;2298411;77;21250;-64
2020/12/19 02:33:54;;;;;;;67.47;30.70;;;;;;;0.03;79.72;99944.66;2276939;77;21261;-64
2020/12/19 02:36:56;;;;;;;73.33;29.85;;;;;;;0.05;80.09;99949.41;2298523;77;21268;-64
2020/12/19 02:39:58;;;;;;;63.73;28.30;;;;;;;0.01;79.71;99947.24;2298890;77;21257;-64
2020/12/19 02:43:00;;;;;;;67.87;28.27;;;;;;;-0.08;79.92;99945.52;2298631;77;21696;-64
2020/12/19 02:46:02;;;;;;;71.17;29.80;;;;;;;-0.07;80.32;99943.80;2298643;77;21256;-64
2020/12/19 02:49:05;;;;;;;68.15;28.73;;;;;;;-0.04;80.18;99938.22;2277125;77;21266;-64
2020/12/19 02:52:07;;;;;;;65.87;28.65;;;;;;;0.00;80.43;99940.38;2298475;77;21720;-64
2020/12/19 02:55:09;;;;;;;65.78;27.40;;;;;;;-0.04;80.19;99935.64;2298695;77;21253;-64
2020/12/19 02:58:11;;;;;;;60.95;28.27;;;;;;;-0.10;80.26;99938.23;2277111;77;21134;-64
2020/12/19 03:01:13;;;;;;;63.13;26.87;;;;;;;-0.12;80.42;99933.92;2298496;77;21283;-64
2020/12/19 03:04:15;;;;;;;69.20;28.60;;;;;;;-0.22;80.54;99927.89;2298387;77;21256;-64
2020/12/19 03:07:18;;;;;;;62.53;28.23;;;;;;;-0.14;80.92;99924.90;2298607;77;21280;-64
2020/12/19 03:10:20;;;;;;;59.90;27.58;;;;;;;-0.07;80.91;99924.04;2298362;77;21261;-64
2020/12/19 03:13:22;;;;;;;63.58;27.42;;;;;;;-0.07;80.67;99924.04;2298669;77;21303;-64
2020/12/19 03:16:24;;;;;;;62.13;26.90;;;;;;;-0.09;80.66;99920.58;2298371;77;21268;-64
2020/12/19 03:19:26;;;;;;;58.90;25.32;;;;;;;-0.05;81.07;99920.17;2298455;77;21636;-64
2020/12/19 03:22:28;;;;;;;56.90;23.87;;;;;;;0.05;80.88;99912.84;2298418;77;21547;-64
2020/12/19 03:25:30;;;;;;;57.43;23.25;;;;;;;0.07;80.93;99913.72;2277008;77;21277;-64
2020/12/19 03:28:32;;;;;;;54.67;22.65;;;;;;;0.05;80.75;99913.29;2298732;77;21268;-64
2020/12/19 03:31:35;;;;;;;54.03;23.25;;;;;;;0.08;80.92;99914.57;2298505;77;21264;-64
2020/12/19 03:34:37;;;;;;;56.10;24.20;;;;;;;-0.06;80.56;99921.90;2298889;77;21269;-64
2020/12/19 03:37:39;;;;;;;54.70;24.20;;;;;;;-0.10;81.15;99914.14;2298641;77;21697;-64
2020/12/19 03:40:41;;;;;;;54.13;24.10;;;;;;;0.02;81.13;99916.72;2298361;77;21244;-64
2020/12/19 03:43:43;;;;;;;59.30;28.02;;;;;;;0.09;80.84;99908.56;2298891;77;21248;-64
2020/12/19 03:46:45;;;;;;;60.12;27.22;;;;;;;-0.01;80.69;99905.12;2298433;77;22056;-64
2020/12/19 03:49:47;;;;;;;68.05;29.27;;;;;;;-0.03;80.82;99901.25;2299778;77;21268;-64
2020/12/19 03:52:49;;;;;;;59.73;28.45;;;;;;;0.00;81.26;99908.14;2305873;77;21723;-64
2020/12/19 03:55:52;;;;;;;67.67;31.85;;;;;;;0.08;80.95;99906.39;2306046;77;21256;-64
2020/12/19 03:58:54;;;;;;;68.83;28.42;;;;;;;0.12;81.28;99897.79;2306273;77;21288;-64
2020/12/19 04:01:56;;;;;;;62.05;26.97;;;;;;;0.21;80.83;99895.63;2305995;77;21709;-64
2020/12/19 04:04:58;;;;;;;60.38;25.90;;;;;;;0.13;80.80;99897.34;2305783;77;21126;-64
2020/12/19 04:08:00;;;;;;;66.05;31.00;;;;;;;0.08;81.04;99893.48;2306229;77;21284;-64
2020/12/19 04:11:02;;;;;;;70.95;29.85;;;;;;;0.07;80.99;99899.95;2274565;77;21689;-64
2020/12/19 04:14:04;;;;;;;64.37;30.37;;;;;;;0.08;81.02;99898.65;2305912;77;21281;-64
2020/12/19 04:17:07;;;;;;;62.98;27.25;;;;;;;0.10;81.18;99902.52;2306244;77;21249;-64
2020/12/19 04:20:09;;;;;;;69.87;27.42;;;;;;;0.22;81.06;99899.08;2305858;77;21703;-64
2020/12/19 04:23:11;;;;;;;64.62;26.17;;;;;;;0.22;80.97;99902.95;2305729;77;21240;-64
2020/12/19 04:26:13;;;;;;;57.93;25.17;;;;;;;0.23;80.89;99899.48;2306207;77;21265;-64
2020/12/19 04:29:15;;;;;;;57.50;25.23;;;;;;;0.25;80.88;99892.63;2306019;77;21502;-64
2020/12/19 04:32:17;;;;;;;64.22;26.33;;;;;;;0.25;80.91;99883.14;2305980;77;21245;-64
2020/12/19 04:35:20;;;;;;;60.88;25.82;;;;;;;0.25;80.74;99881.86;2305901;77;21260;-64
2020/12/19 04:38:22;;;;;;;60.28;27.48;;;;;;;0.24;80.74;99878.84;2306218;77;21115;-64
2020/12/19 04:41:24;;;;;;;63.98;27.30;;;;;;;0.24;80.95;99873.68;2306185;77;21281;-64
2020/12/19 04:44:26;;;;;;;62.17;26.25;;;;;;;0.26;80.79;99877.13;2306065;77;21724;-64
2020/12/19 04:47:28;;;;;;;65.92;28.47;;;;;;;0.20;80.84;99879.70;2305932;77;21277;-64
2020/12/19 04:50:30;;;;;;;59.05;25.60;;;;;;;0.21;80.68;99882.72;2306080;77;21684;-64
2020/12/19 04:53:32;;;;;;;62.93;27.93;;;;;;;0.10;80.80;99887.03;2305953;77;21256;-64
2020/12/19 04:56:34;;;;;;;71.07;28.47;;;;;;;0.13;80.95;99892.19;2306430;77;21110;-64
2020/12/19 04:59:36;;;;;;;70.32;27.95;;;;;;;0.16;80.84;99894.34;2306041;77;21697;-64
2020/12/19 05:02:39;;;;;;;61.55;25.85;;;;;;;0.15;80.94;99891.77;2305895;77;21232;-64
2020/12/19 05:05:41;;;;;;;63.78;27.60;;;;;;;0.19;80.69;99892.61;2306165;77;21259;-64
2020/12/19 05:08:43;;;;;;;63.48;26.80;;;;;;;0.12;80.57;99895.66;2305855;77;21113;-64
2020/12/19 05:11:45;;;;;;;57.78;25.68;;;;;;;0.07;80.62;99889.63;2275348;77;21724;-64
2020/12/19 05:14:47;;;;;;;59.33;25.32;;;;;;;0.06;80.64;99892.65;2305915;77;21264;-64
2020/12/19 05:17:49;;;;;;;59.38;26.80;;;;;;;0.12;80.87;99899.08;2306403;77;21085;-64
2020/12/19 05:20:51;;;;;;;61.28;25.40;;;;;;;0.08;80.61;99902.52;2306129;77;21724;-64
2020/12/19 05:23:53;;;;;;;61.40;25.48;;;;;;;0.01;80.72;99905.97;2306181;77;21291;-64
2020/12/19 05:26:56;;;;;;;59.27;26.50;;;;;;;0.00;80.75;99913.30;2306379;77;21177;-64
2020/12/19 05:29:58;;;;;;;60.75;26.25;;;;;;;0.04;80.76;99915.43;2305722;77;21712;-64
2020/12/19 05:33:00;;;;;;;64.35;28.10;;;;;;;0.05;80.80;99915.42;2306166;77;21257;-64
2020/12/19 05:36:03;;;;;;;60.50;25.95;;;;;;;0.09;80.54;99909.41;2306002;77;21291;-64
2020/12/19 05:39:05;;;;;;;60.73;27.48;;;;;;;0.13;80.58;99913.70;2306394;77;21437;-64
2020/12/19 05:42:07;;;;;;;61.25;26.07;;;;;;;0.12;80.55;99915.00;2305985;77;21681;-64
2020/12/19 05:45:09;;;;;;;65.70;27.55;;;;;;;0.06;80.34;99918.45;2306358;77;21118;-64
2020/12/19 05:48:11;;;;;;;65.22;28.00;;;;;;;0.09;80.79;99918.88;2306099;77;21712;-64
2020/12/19 05:51:14;;;;;;;70.20;30.72;;;;;;;0.11;80.55;99921.02;2297167;77;21147;-64
2020/12/19 05:54:16;;;;;;;63.17;28.75;;;;;;;0.10;79.99;99920.58;2288820;78;21143;-64
2020/12/19 05:57:19;;;;;;;65.15;28.42;;;;;;;-0.02;79.97;99919.72;2288398;78;21083;-64
2020/12/19 06:00:21;;;;;;;64.75;28.40;;;;;;;-0.13;80.11;99913.73;2288787;78;21108;-64
2020/12/19 06:03:23;;;;;;;59.05;25.00;;;;;;;-0.22;80.25;99912.42;2288788;78;21289;-64
2020/12/19 06:06:25;;;;;;;62.13;26.57;;;;;;;-0.19;80.41;99918.87;2288790;78;21570;-64
2020/12/19 06:09:27;;;;;;;59.95;25.90;;;;;;;-0.27;80.25;99920.61;2289028;78;21280;-64
2020/12/19 06:12:29;;;;;;;63.13;26.25;;;;;;;-0.26;80.66;99919.31;2288778;78;21170;-64
2020/12/19 06:15:31;;;;;;;61.68;26.27;;;;;;;-0.30;80.39;99913.72;2289054;78;21293;-64
2020/12/19 06:18:34;;;;;;;64.47;26.65;;;;;;;-0.36;80.53;99910.70;2288529;78;21614;-64
2020/12/19 06:21:36;;;;;;;96.20;37.10;;;;;;;-0.29;80.70;99903.81;2289002;78;21285;-64
2020/12/19 06:24:38;;;;;;;97.95;39.00;;;;;;;-0.35;80.54;99906.40;2288800;78;21114;-64
2020/12/19 06:27:40;;;;;;;65.60;28.07;;;;;;;-0.36;80.55;99909.42;2288498;78;21131;-64
2020/12/19 06:30:43;;;;;;;63.85;28.20;;;;;;;-0.26;80.85;99913.28;2288711;78;21134;-64
2020/12/19 06:33:46;;;;;;;61.92;25.77;;;;;;;-0.23;80.67;99905.12;2288521;78;21543;-64
2020/12/19 06:36:49;;;;;;;60.88;25.80;;;;;;;-0.28;80.52;99911.14;2288528;78;21122;-64
2020/12/19 06:39:51;;;;;;;58.78;25.17;;;;;;;-0.26;80.61;99911.58;2288466;78;21115;-64
2020/12/19 06:42:53;;;;;;;78.25;35.03;;;;;;;-0.30;80.52;99909.86;2288709;78;21566;-64
2020/12/19 06:45:55;;;;;;;63.87;27.50;;;;;;;-0.30;80.54;99907.69;2288473;78;21143;-64
2020/12/19 06:48:57;;;;;;;64.03;26.48;;;;;;;-0.39;80.56;99913.29;2288927;78;21289;-64
2020/12/19 06:51:59;;;;;;;63.42;26.33;;;;;;;-0.40;80.62;99917.16;2288382;77;21131;-64
2020/12/19 06:55:02;;;;;;;59.60;26.10;;;;;;;-0.40;80.78;99910.70;2288487;78;21581;-64
2020/12/19 06:58:04;;;;;;;66.62;27.70;;;;;;;-0.30;80.85;99918.88;2288619;78;21281;-64
2020/12/19 07:01:07;;;;;;;62.05;26.30;;;;;;;-0.20;81.02;99912.86;2288602;78;21566;-64
2020/12/19 07:04:09;;;;;;;59.18;25.80;;;;;;;-0.10;80.72;99915.42;2288643;78;21249;-64
2020/12/19 07:07:11;;;;;;;62.23;25.90;;;;;;;0.02;80.70;99918.45;2288933;78;21265;-64
2020/12/19 07:10:13;;;;;;;61.35;26.70;;;;;;;0.06;80.48;99926.19;2288550;78;21126;-64
2020/12/19 07:13:15;;;;;;;67.97;29.72;;;;;;;0.15;80.28;99914.55;2289008;78;21285;-64
2020/12/19 07:16:18;;;;;;;65.80;28.60;;;;;;;0.15;80.04;99916.28;2288775;78;21258;-64
2020/12/19 07:19:21;;;;;;;63.15;26.35;;;;;;;0.03;79.93;99922.33;2288754;78;21118;-64
2020/12/19 07:22:23;;;;;;;60.80;25.68;;;;;;;0.10;80.20;99930.89;2288869;78;21259;-64
2020/12/19 07:25:26;;;;;;;63.48;25.80;;;;;;;0.05;79.86;99921.88;2288861;78;21289;-64
2020/12/19 07:28:28;;;;;;;58.10;26.42;;;;;;;-0.07;79.91;99927.91;2288568;78;21590;-64
2020/12/19 07:31:30;;;;;;;62.53;26.50;;;;;;;-0.08;80.21;99930.05;2288949;78;21134;-64
2020/12/19 07:34:32;;;;;;;62.38;26.75;;;;;;;-0.03;80.25;99936.08;2288701;78;21571;-64
2020/12/19 07:37:34;;;;;;;59.63;24.60;;;;;;;-0.01;80.10;99930.92;2288716;78;21123;-64
2020/12/19 07:40:37;;;;;;;57.78;24.47;;;;;;;-0.03;79.97;99924.47;2288895;78;21333;-64
2020/12/19 07:43:39;;;;;;;57.27;25.82;;;;;;;0.05;80.23;99920.59;2288464;78;21115;-64
2020/12/19 07:46:41;;;;;;;60.85;27.95;;;;;;;0.15;79.93;99925.31;2288918;78;21292;-64
2020/12/19 07:49:45;;;;;;;63.48;27.13;;;;;;;0.06;79.87;99922.73;2288815;78;21272;-64
2020/12/19 07:52:47;;;;;;;59.88;26.45;;;;;;;0.09;79.70;99924.04;2296761;77;21263;-64
2020/12/19 07:55:50;;;;;;;54.90;24.15;;;;;;;0.09;79.69;99926.17;2298470;77;21233;-64
2020/12/19 07:58:52;;;;;;;78.62;34.27;;;;;;;0.02;79.66;99930.91;2298781;77;21083;-64
2020/12/19 08:01:54;;;;;;;69.67;30.27;;;;;;;-0.03;79.85;99927.05;2298622;77;21253;-64
2020/12/19 08:04:56;;;;;;;58.23;25.17;;;;;;;0.02;79.90;99921.03;2298389;77;21265;-64
2020/12/19 08:07:59;;;;;;;62.27;25.30;;;;;;;-0.05;79.71;99930.48;2277120;77;21728;-64
2020/12/19 08:11:01;;;;;;;55.75;24.87;;;;;;;-0.07;79.94;99926.62;2298442;77;21256;-64
2020/12/19 08:14:06;;;;;;;52.78;23.60;;;;;;;-0.12;79.82;99926.19;2299095;77;21252;-64
2020/12/19 08:17:07;;;;;;;59.35;26.48;;;;;;;-0.14;80.15;99924.90;2298645;77;21260;-64
2020/12/19 08:20:10;;;;;;;57.15;25.30;;;;;;;-0.07;80.18;99922.75;2277260;77;21550;-64
2020/12/19 08:23:12;;;;;;;58.55;26.33;;;;;;;-0.01;80.21;99924.03;2298710;77;21130;-64
2020/12/19 08:26:14;;;;;;;60.85;25.60;;;;;;;0.10;80.51;99922.75;2298547;77;21245;-64
2020/12/19 08:29:16;;;;;;;62.00;26.50;;;;;;;0.28;80.24;99929.59;2299058;77;21285;-64
2020/12/19 08:32:19;;;;;;;;;;;;;;;0.42;79.86;99920.98;2301523;77;21256;-64
2020/12/19 08:35:21;;;;;;;65.17;28.63;;;;;;;0.45;79.65;99926.14;2298927;77;20154;-64
2020/12/19 08:38:24;;;;;;;99.52;44.05;;;;;;;0.52;79.86;99923.97;2298796;77;21260;-64
2020/12/19 08:41:27;;;;;;;89.80;45.55;;;;;;;0.64;79.89;99925.65;2298370;77;21244;-64
2020/12/19 08:44:29;;;;;;;66.67;31.30;;;;;;;0.71;79.42;99920.05;2298991;77;21296;-64
2020/12/19 08:47:32;;;;;;;62.70;28.70;;;;;;;0.68;79.47;99923.05;2298673;77;21696;-64
2020/12/19 08:50:34;;;;;;;150.65;62.05;;;;;;;0.72;79.52;99926.91;2298743;77;21561;-64
2020/12/19 08:53:36;;;;;;;170.43;69.47;;;;;;;0.80;79.65;99927.30;2306446;77;21125;-64
2020/12/19 08:56:39;;;;;;;137.85;53.28;;;;;;;0.95;79.59;99927.70;2305937;77;21252;-64
2020/12/19 08:59:41;;;;;;;117.25;48.20;;;;;;;0.97;79.35;99927.24;2305880;77;21272;-64
2020/12/19 09:02:44;;;;;;;68.80;29.52;;;;;;;0.98;79.20;99930.27;2305972;77;21132;-64
2020/12/19 09:05:46;;;;;;;88.05;39.90;;;;;;;0.99;79.08;99929.41;2306166;77;21732;-64
2020/12/19 09:08:49;;;;;;;88.60;41.15;;;;;;;0.99;79.08;99925.53;2274939;77;21716;-64
2020/12/19 09:11:51;;;;;;;85.87;38.92;;;;;;;0.92;79.07;99923.84;2305799;77;21279;-64
2020/12/19 09:14:53;;;;;;;91.65;42.38;;;;;;;0.94;79.12;99925.97;2306385;77;21129;-64
2020/12/19 09:17:55;;;;;;;80.35;35.63;;;;;;;0.97;79.35;99931.56;2306183;77;21288;-64
2020/12/19 09:20:58;;;;;;;83.42;39.23;;;;;;;1.02;79.46;99931.09;2306326;77;21141;-64
2020/12/19 09:24:00;;;;;;;74.05;36.25;;;;;;;1.15;79.37;99926.73;2306158;77;21699;-64
2020/12/19 09:27:02;;;;;;;70.17;31.27;;;;;;;1.29;79.31;99926.66;2306371;77;21162;-64
2020/12/19 09:30:04;;;;;;;64.32;30.45;;;;;;;1.28;78.91;99932.69;2305898;77;21134;-64
2020/12/19 09:33:07;;;;;;;67.47;31.33;;;;;;;1.37;78.92;99932.66;2305884;77;21580;-64
2020/12/19 09:36:09;;;;;;;66.30;29.23;;;;;;;1.45;78.72;99937.36;2305986;77;21271;-64
2020/12/19 09:39:11;;;;;;;68.00;30.52;;;;;;;1.44;78.49;99933.05;2306118;77;21685;-63
2020/12/19 09:42:14;;;;;;;77.15;36.70;;;;;;;1.46;78.82;99929.16;2305984;77;21709;-64
2020/12/19 09:45:16;;;;;;;69.95;29.63;;;;;;;1.65;79.06;99925.59;2306380;77;21292;-64
2020/12/19 09:48:19;;;;;;;67.72;29.32;;;;;;;1.73;78.80;99919.91;2305944;77;21700;-64
2020/12/19 09:51:22;;;;;;;63.08;28.85;;;;;;;1.79;78.67;99918.16;2304299;77;21248;-64
2020/12/19 09:54:24;;;;;;;66.37;30.27;;;;;;;1.81;78.12;99921.58;2298492;77;21252;-64
2020/12/19 09:57:26;;;;;;;69.20;32.28;;;;;;;1.78;78.16;99925.08;2298569;77;21292;-64
2020/12/19 10:00:28;;;;;;;68.17;31.17;;;;;;;1.70;78.20;99924.27;2298950;77;21272;-64
2020/12/19 10:03:30;;;;;;;66.45;31.07;;;;;;;1.65;78.64;99924.72;2298610;77;21744;-64
2020/12/19 10:06:33;;;;;;;73.07;32.53;;;;;;;1.74;78.72;99923.38;2298531;77;21717;-64
2020/12/19 10:09:35;;;;;;;71.72;32.78;;;;;;;1.88;78.69;99926.72;2277099;77;21273;-64
2020/12/19 10:12:37;;;;;;;73.70;31.33;;;;;;;1.85;78.07;99915.52;2298695;77;21688;-64
2020/12/19 10:15:39;;;;;;;77.30;33.38;;;;;;;1.69;78.13;99914.33;2298547;77;21581;-64
2020/12/19 10:18:42;;;;;;;65.85;31.65;;;;;;;1.64;78.05;99911.34;2298976;77;21257;-64
2020/12/19 10:21:44;;;;;;;62.30;29.82;;;;;;;1.46;78.10;99908.03;2275834;77;21704;-64
2020/12/19 10:24:46;;;;;;;66.45;29.50;;;;;;;1.46;78.52;99903.30;2298824;77;21143;-64
2020/12/19 10:27:48;;;;;;;66.53;30.35;;;;;;;1.51;78.50;99909.31;2298661;77;21292;-64
2020/12/19 10:30:50;;;;;;;70.35;32.85;;;;;;;1.41;78.19;99902.05;2298563;77;21119;-64
2020/12/19 10:33:52;;;;;;;105.05;43.75;;;;;;;1.31;78.46;99904.27;2277102;77;21265;-64
2020/12/19 10:36:54;;;;;;;70.37;32.70;;;;;;;1.26;78.65;99904.27;2298652;77;21685;-64
2020/12/19 10:39:56;;;;;;;75.83;35.80;;;;;;;1.30;78.81;99906.42;2299123;77;21131;-64
2020/12/19 10:42:58;;;;;;;71.62;32.03;;;;;;;1.35;79.04;99902.06;2298929;77;21268;-64
2020/12/19 10:46:01;;;;;;;80.28;36.80;;;;;;;1.43;78.67;99900.30;2298552;77;21681;-64
2020/12/19 10:49:04;;;;;;;;;;;;;;;1.44;78.79;99895.97;2301485;77;21276;-64
2020/12/19 10:52:06;;;;;;;67.13;31.33;;;;;;;1.56;78.71;99890.73;2298512;77;20536;-64
2020/12/19 10:55:08;;;;;;;71.45;32.45;;;;;;;1.54;78.25;99891.19;2298415;77;21712;-64
2020/12/19 10:58:10;;;;;;;68.02;28.87;;;;;;;1.42;78.24;99884.80;2298746;77;21265;-64
2020/12/19 11:01:12;;;;;;;65.60;28.10;;;;;;;1.52;78.44;99879.98;2298296;77;21277;-64
2020/12/19 11:04:15;;;;;;;64.90;27.80;;;;;;;1.53;78.14;99881.70;2298911;77;21554;-64
2020/12/19 11:07:17;;;;;;;60.78;26.42;;;;;;;1.54;78.15;99877.81;2298891;77;21273;-64
2020/12/19 11:10:19;;;;;;;63.58;27.80;;;;;;;1.46;78.01;99873.13;2298760;77;21268;-64
2020/12/19 11:13:21;;;;;;;69.58;29.30;;;;;;;1.45;78.28;99870.55;2298525;77;21272;-64
2020/12/19 11:16:23;;;;;;;63.55;27.60;;;;;;;1.45;78.36;99866.26;2298870;77;21253;-64
2020/12/19 11:19:25;;;;;;;59.13;26.85;;;;;;;1.49;78.56;99867.08;2298625;77;21724;-64
2020/12/19 11:22:28;;;;;;;68.37;29.82;;;;;;;1.52;78.68;99862.75;2298391;77;21279;-64
2020/12/19 11:25:30;;;;;;;62.90;28.92;;;;;;;1.60;78.77;99859.25;2298680;77;21285;-64
2020/12/19 11:28:33;;;;;;;64.32;30.30;;;;;;;1.76;78.77;99858.69;2298489;77;21276;-64
2020/12/19 11:31:36;;;;;;;67.25;31.75;;;;;;;1.85;78.53;99850.42;2298712;77;21146;-64
2020/12/19 11:34:38;;;;;;;75.97;33.13;;;;;;;1.78;78.39;99843.58;2298489;77;21273;-64
2020/12/19 11:37:40;;;;;;;69.25;30.25;;;;;;;1.79;78.49;99840.09;2298377;77;21241;-64
2020/12/19 11:40:42;;;;;;;65.00;28.67;;;;;;;1.79;78.61;99834.92;2298462;77;21585;-64
2020/12/19 11:43:44;;;;;;;67.50;27.22;;;;;;;1.82;78.73;99836.63;2298698;77;21550;-64
2020/12/19 11:46:47;;;;;;;64.62;26.25;;;;;;;1.82;78.82;99830.16;2298851;77;21299;-64
2020/12/19 11:49:49;;;;;;;68.30;27.80;;;;;;;1.92;78.87;99836.97;2299055;77;21269;-64
2020/12/19 11:52:51;;;;;;;71.10;28.20;;;;;;;1.86;78.59;99835.29;2293161;77;21280;-64
2020/12/19 11:55:53;;;;;;;61.37;24.72;;;;;;;1.83;79.03;99831.89;2288884;78;21586;-64
2020/12/19 11:58:55;;;;;;;56.65;24.98;;;;;;;1.95;78.75;99830.46;2288686;78;21154;-64
2020/12/19 12:01:57;;;;;;;55.95;24.95;;;;;;;1.88;78.88;99836.56;2288783;78;21102;-64
2020/12/19 12:05:00;;;;;;;59.65;25.32;;;;;;;1.85;78.84;99834.02;2289195;78;21257;-64
2020/12/19 12:08:02;;;;;;;58.00;26.00;;;;;;;1.83;78.95;99834.03;2288912;78;21254;-64
2020/12/19 12:11:04;;;;;;;57.62;24.00;;;;;;;1.86;79.15;99835.73;2288878;78;21524;-64
2020/12/19 12:14:06;;;;;;;62.00;27.25;;;;;;;1.89;79.26;99831.83;2289180;78;21269;-64
2020/12/19 12:17:09;;;;;;;57.10;22.30;;;;;;;1.95;79.17;99831.75;2260565;78;21590;-64
2020/12/19 12:20:11;;;;;;;58.00;22.27;;;;;;;1.92;79.26;99827.91;2288640;78;21118;-64
2020/12/19 12:23:13;;;;;;;55.85;22.70;;;;;;;1.99;79.37;99821.80;2260627;78;21324;-64
2020/12/19 12:26:15;;;;;;;53.63;21.37;;;;;;;2.02;79.26;99815.30;2289115;78;21289;-64
2020/12/19 12:29:21;;;;;;;58.68;23.25;;;;;;;1.98;79.08;99818.78;2288674;78;21543;-64
2020/12/19 12:32:23;;;;;;;52.55;21.80;;;;;;;2.03;79.34;99820.05;2288515;78;21143;-64
2020/12/19 12:35:25;;;;;;;53.13;21.85;;;;;;;1.98;79.18;99821.37;2288634;78;21099;-64
2020/12/19 12:38:28;;;;;;;53.02;21.35;;;;;;;2.01;79.46;99820.48;2288644;78;21123;-64
2020/12/19 12:41:30;;;;;;;62.67;25.57;;;;;;;2.04;79.23;99825.21;2288828;78;21305;-64
2020/12/19 12:44:32;;;;;;;65.37;26.40;;;;;;;2.10;79.34;99816.95;2288630;78;21127;-64
2020/12/19 12:47:34;;;;;;;60.03;25.43;;;;;;;2.10;79.24;99818.23;2288849;78;21283;-63
2020/12/19 12:50:36;;;;;;;65.28;27.60;;;;;;;2.16;79.25;99810.43;2288737;78;21712;-64
2020/12/19 12:53:38;;;;;;;72.82;30.37;;;;;;;2.14;79.23;99808.28;2288539;78;21119;-64
2020/12/19 12:56:40;;;;;;;62.83;25.17;;;;;;;2.12;79.19;99813.92;2289130;78;21131;-64
2020/12/19 12:59:43;;;;;;;66.90;25.65;;;;;;;2.12;79.19;99812.63;2288859;78;21252;-64
2020/12/19 13:02:45;;;;;;;62.38;26.20;;;;;;;2.11;79.33;99811.75;2288838;78;21629;-64
2020/12/19 13:05:47;;;;;;;99.28;43.00;;;;;;;2.11;79.24;99812.20;2288744;78;21107;-64
2020/12/19 13:08:49;;;;;;;63.13;26.25;;;;;;;2.20;79.26;99813.41;2288554;78;21144;-64
2020/12/19 13:11:52;;;;;;;65.87;25.62;;;;;;;2.23;79.24;99818.55;2260587;78;21562;-64
2020/12/19 13:14:54;;;;;;;65.15;26.20;;;;;;;2.35;79.33;99821.43;2288584;78;21253;-64
2020/12/19 13:18:00;;;;;;;;;;;;;;;2.31;78.93;99816.70;2291169;78;21154;-64
2020/12/19 13:21:01;;;;;;;64.53;25.27;;;;;;;2.31;79.21;99824.92;2288406;78;20150;-64
2020/12/19 13:24:04;;;;;;;62.33;22.93;;;;;;;2.30;79.07;99828.38;2288610;78;21142;-64
2020/12/19 13:27:06;;;;;;;68.45;26.10;;;;;;;2.28;78.91;99830.98;2288810;78;21614;-64
2020/12/19 13:30:08;;;;;;;68.70;29.63;;;;;;;2.30;79.02;99827.96;2288787;78;21265;-64
2020/12/19 13:33:10;;;;;;;66.07;27.15;;;;;;;2.27;78.79;99820.23;2288601;78;21285;-64
2020/12/19 13:36:13;;;;;;;;;;;;;;;2.17;78.87;99822.06;2291179;78;21142;-64
2020/12/19 13:39:15;;;;;;;64.13;25.60;;;;;;;2.15;78.85;99822.49;2288934;78;20142;-64
2020/12/19 13:42:17;;;;;;;62.60;24.30;;;;;;;2.09;79.02;99825.16;2288805;78;21284;-64
2020/12/19 13:45:19;;;;;;;58.73;23.05;;;;;;;2.11;78.99;99826.44;2288954;78;21277;-64
2020/12/19 13:48:22;;;;;;;58.30;23.52;;;;;;;1.91;78.95;99826.19;2288539;78;21126;-64
2020/12/19 13:51:29;;;;;;;60.52;22.93;;;;;;;1.80;79.36;99826.30;2288337;78;21068;-64
2020/12/19 13:54:40;;;;;;;53.68;23.75;;;;;;;1.79;79.56;99832.78;2288395;78;21229;-64
2020/12/19 13:57:43;;;;;;;56.92;23.47;;;;;;;1.73;79.54;99837.12;2288527;78;21114;-64
2020/12/19 14:00:46;;;;;;;54.83;22.93;;;;;;;1.68;79.53;99838.92;2288390;78;21163;-64
2020/12/19 14:03:48;;;;;;;55.70;22.42;;;;;;;1.63;79.63;99840.67;2288548;78;21119;-64
2020/12/19 14:06:50;;;;;;;54.55;23.10;;;;;;;1.62;79.75;99851.88;2288977;78;21134;-63